sensor_id;sensor_type;location;lat;lon;timestamp;pressure;altitude;pressure_sealevel;temperature
75431;BMP280;64127;51.488;5.462;2023-04-03T00:01:14;102744.94;;;7.76
75431;BMP280;64127;51.488;5.462;2023-04-03T00:03:46;102746.50;;;7.74
75431;BMP280;64127;51.488;5.462;2023-04-03T00:06:19;102745.69;;;7.75
75431;BMP280;64127;51.488;5.462;2023-04-03T00:08:51;102699.31;;;7.40
75431;BMP280;64127;51.488;5.462;2023-04-03T00:11:23;102751.84;;;7.65
75431;BMP280;64127;51.488;5.462;2023-04-03T00:13:55;102750.69;;;7.61
75431;BMP280;64127;51.488;5.462;2023-04-03T00:16:27;102759.28;;;7.60
75431;BMP280;64127;51.488;5.462;2023-04-03T00:19:00;102753.81;;;7.57
75431;BMP280;64127;51.488;5.462;2023-04-03T00:21:31;102760.09;;;7.59
75431;BMP280;64127;51.488;5.462;2023-04-03T00:24:04;102756.31;;;7.56
75431;BMP280;64127;51.488;5.462;2023-04-03T00:26:36;102760.34;;;7.52
75431;BMP280;64127;51.488;5.462;2023-04-03T00:29:08;102760.34;;;7.52
75431;BMP280;64127;51.488;5.462;2023-04-03T00:31:40;102761.91;;;7.50
75431;BMP280;64127;51.488;5.462;2023-04-03T00:34:12;102763.97;;;7.54
75431;BMP280;64127;51.488;5.462;2023-04-03T00:36:44;102759.53;;;7.53
75431;BMP280;64127;51.488;5.462;2023-04-03T00:39:17;102741.59;;;7.36
75431;BMP280;64127;51.488;5.462;2023-04-03T00:41:49;102761.00;;;7.50
75431;BMP280;64127;51.488;5.462;2023-04-03T00:47:09;102741.28;;;7.33
75431;BMP280;64127;51.488;5.462;2023-04-03T00:49:44;102760.34;;;7.42
75431;BMP280;64127;51.488;5.462;2023-04-03T00:52:20;102721.25;;;7.12
75431;BMP280;64127;51.488;5.462;2023-04-03T00:54:57;102772.88;;;7.36
75431;BMP280;64127;51.488;5.462;2023-04-03T00:57:31;102768.03;;;7.31
75431;BMP280;64127;51.488;5.462;2023-04-03T01:00:11;102752.25;;;7.19
75431;BMP280;64127;51.488;5.462;2023-04-03T01:02:44;102776.91;;;7.33
75431;BMP280;64127;51.488;5.462;2023-04-03T01:05:19;102765.31;;;7.29
75431;BMP280;64127;51.488;5.462;2023-04-03T01:07:53;102777.44;;;7.29
75431;BMP280;64127;51.488;5.462;2023-04-03T01:10:25;102760.84;;;7.18
75431;BMP280;64127;51.488;5.462;2023-04-03T01:12:59;102780.03;;;7.29
75431;BMP280;64127;51.488;5.462;2023-04-03T01:15:31;102773.66;;;7.25
75431;BMP280;64127;51.488;5.462;2023-04-03T01:18:10;102777.03;;;7.24
75431;BMP280;64127;51.488;5.462;2023-04-03T01:21:18;102773.13;;;7.19
75431;BMP280;64127;51.488;5.462;2023-04-03T01:24:12;102777.00;;;7.14
75431;BMP280;64127;51.488;5.462;2023-04-03T01:26:48;102782.06;;;7.12
75431;BMP280;64127;51.488;5.462;2023-04-03T01:29:20;102786.13;;;7.09
75431;BMP280;64127;51.488;5.462;2023-04-03T01:31:58;102790.16;;;7.05
75431;BMP280;64127;51.488;5.462;2023-04-03T01:34:31;102789.13;;;7.03
75431;BMP280;64127;51.488;5.462;2023-04-03T01:37:03;102752.72;;;6.85
75431;BMP280;64127;51.488;5.462;2023-04-03T01:39:35;102784.03;;;7.05
75431;BMP280;64127;51.488;5.462;2023-04-03T01:42:07;102782.47;;;7.07
75431;BMP280;64127;51.488;5.462;2023-04-03T01:44:39;102767.72;;;6.97
75431;BMP280;64127;51.488;5.462;2023-04-03T01:47:11;102784.66;;;7.02
75431;BMP280;64127;51.488;5.462;2023-04-03T01:49:43;102772.78;;;6.96
75431;BMP280;64127;51.488;5.462;2023-04-03T01:52:15;102785.59;;;7.03
75431;BMP280;64127;51.488;5.462;2023-04-03T01:54:47;102797.59;;;7.01
75431;BMP280;64127;51.488;5.462;2023-04-03T01:57:19;102786.09;;;6.99
75431;BMP280;64127;51.488;5.462;2023-04-03T01:59:51;102765.22;;;6.89
75431;BMP280;64127;51.488;5.462;2023-04-03T02:02:23;102794.16;;;6.92
75431;BMP280;64127;51.488;5.462;2023-04-03T02:04:55;102794.03;;;6.90
75431;BMP280;64127;51.488;5.462;2023-04-03T02:07:27;102785.03;;;6.87
75431;BMP280;64127;51.488;5.462;2023-04-03T02:09:59;102793.13;;;6.90
75431;BMP280;64127;51.488;5.462;2023-04-03T02:12:31;102793.13;;;6.90
75431;BMP280;64127;51.488;5.462;2023-04-03T02:15:03;102794.69;;;6.88
75431;BMP280;64127;51.488;5.462;2023-04-03T02:17:36;102786.59;;;6.85
75431;BMP280;64127;51.488;5.462;2023-04-03T02:20:09;102791.81;;;6.85
75431;BMP280;64127;51.488;5.462;2023-04-03T02:22:41;102781.63;;;6.78
75431;BMP280;64127;51.488;5.462;2023-04-03T02:25:14;102770.38;;;6.69
75431;BMP280;64127;51.488;5.462;2023-04-03T02:27:46;102803.00;;;6.84
75431;BMP280;64127;51.488;5.462;2023-04-03T02:30:18;102792.59;;;6.84
75431;BMP280;64127;51.488;5.462;2023-04-03T02:32:50;102794.28;;;6.83
75431;BMP280;64127;51.488;5.462;2023-04-03T02:35:22;102802.75;;;6.81
75431;BMP280;64127;51.488;5.462;2023-04-03T02:37:54;102807.69;;;6.78
75431;BMP280;64127;51.488;5.462;2023-04-03T02:40:27;102807.69;;;6.78
75431;BMP280;64127;51.488;5.462;2023-04-03T02:42:59;102807.38;;;6.75
75431;BMP280;64127;51.488;5.462;2023-04-03T02:45:31;102804.00;;;6.76
75431;BMP280;64127;51.488;5.462;2023-04-03T02:48:03;102810.00;;;6.75
75431;BMP280;64127;51.488;5.462;2023-04-03T02:50:37;102809.09;;;6.74
75431;BMP280;64127;51.488;5.462;2023-04-03T02:53:09;102809.88;;;6.73
75431;BMP280;64127;51.488;5.462;2023-04-03T02:55:41;102811.28;;;6.70
75431;BMP280;64127;51.488;5.462;2023-04-03T02:58:14;102813.75;;;6.68
75431;BMP280;64127;51.488;5.462;2023-04-03T03:00:46;102815.31;;;6.66
75431;BMP280;64127;51.488;5.462;2023-04-03T03:03:17;102785.28;;;6.51
75431;BMP280;64127;51.488;5.462;2023-04-03T03:05:50;102785.94;;;6.48
75431;BMP280;64127;51.488;5.462;2023-04-03T03:08:21;102811.78;;;6.66
75431;BMP280;64127;51.488;5.462;2023-04-03T03:10:53;102810.75;;;6.63
75431;BMP280;64127;51.488;5.462;2023-04-03T03:13:26;102802.94;;;6.63
75431;BMP280;64127;51.488;5.462;2023-04-03T03:15:58;102804.47;;;6.61
75431;BMP280;64127;51.488;5.462;2023-04-03T03:18:31;102811.53;;;6.62
75431;BMP280;64127;51.488;5.462;2023-04-03T03:21:04;102806.31;;;6.62
75431;BMP280;64127;51.488;5.462;2023-04-03T03:23:36;102809.56;;;6.60
75431;BMP280;64127;51.488;5.462;2023-04-03T03:26:10;102805.00;;;6.57
75431;BMP280;64127;51.488;5.462;2023-04-03T03:28:42;102800.56;;;6.56
75431;BMP280;64127;51.488;5.462;2023-04-03T03:31:14;102807.31;;;6.54
75431;BMP280;64127;51.488;5.462;2023-04-03T03:33:47;102814.34;;;6.55
75431;BMP280;64127;51.488;5.462;2023-04-03T03:36:19;102815.13;;;6.54
75431;BMP280;64127;51.488;5.462;2023-04-03T03:38:51;102817.59;;;6.53
75431;BMP280;64127;51.488;5.462;2023-04-03T03:41:23;102818.53;;;6.53
75431;BMP280;64127;51.488;5.462;2023-04-03T03:43:55;102813.94;;;6.51
75431;BMP280;64127;51.488;5.462;2023-04-03T03:46:27;102819.28;;;6.52
75431;BMP280;64127;51.488;5.462;2023-04-03T03:48:59;102825.16;;;6.50
75431;BMP280;64127;51.488;5.462;2023-04-03T03:51:31;102829.44;;;6.49
75431;BMP280;64127;51.488;5.462;2023-04-03T03:54:04;102816.63;;;6.42
75431;BMP280;64127;51.488;5.462;2023-04-03T03:56:36;102837.53;;;6.52
75431;BMP280;64127;51.488;5.462;2023-04-03T03:59:11;102829.16;;;6.46
75431;BMP280;64127;51.488;5.462;2023-04-03T04:01:44;102834.66;;;6.49
75431;BMP280;64127;51.488;5.462;2023-04-03T04:04:16;102839.84;;;6.49
75431;BMP280;64127;51.488;5.462;2023-04-03T04:06:48;102834.50;;;6.48
75431;BMP280;64127;51.488;5.462;2023-04-03T04:09:20;102832.53;;;6.45
75431;BMP280;64127;51.488;5.462;2023-04-03T04:11:53;102822.84;;;6.34
75431;BMP280;64127;51.488;5.462;2023-04-03T04:14:25;102842.69;;;6.42
75431;BMP280;64127;51.488;5.462;2023-04-03T04:16:58;102842.69;;;6.42
75431;BMP280;64127;51.488;5.462;2023-04-03T04:19:30;102822.56;;;6.31
75431;BMP280;64127;51.488;5.462;2023-04-03T04:22:02;102846.03;;;6.41
75431;BMP280;64127;51.488;5.462;2023-04-03T04:24:34;102840.44;;;6.37
75431;BMP280;64127;51.488;5.462;2023-04-03T04:27:08;102839.53;;;6.36
75431;BMP280;64127;51.488;5.462;2023-04-03T04:29:40;102836.50;;;6.32
75431;BMP280;64127;51.488;5.462;2023-04-03T04:32:12;102834.53;;;6.29
75431;BMP280;64127;51.488;5.462;2023-04-03T04:34:44;102822.38;;;6.20
75431;BMP280;64127;51.488;5.462;2023-04-03T04:37:16;102829.06;;;6.26
75431;BMP280;64127;51.488;5.462;2023-04-03T04:39:48;102834.88;;;6.24
75431;BMP280;64127;51.488;5.462;2023-04-03T04:42:20;102839.03;;;6.22
75431;BMP280;64127;51.488;5.462;2023-04-03T04:44:52;102845.94;;;6.21
75431;BMP280;64127;51.488;5.462;2023-04-03T04:47:24;102843.81;;;6.17
75431;BMP280;64127;51.488;5.462;2023-04-03T04:49:56;102848.09;;;6.17
75431;BMP280;64127;51.488;5.462;2023-04-03T04:52:28;102851.63;;;6.17
75431;BMP280;64127;51.488;5.462;2023-04-03T04:55:00;102841.63;;;6.03
75431;BMP280;64127;51.488;5.462;2023-04-03T04:57:32;102858.22;;;6.13
75431;BMP280;64127;51.488;5.462;2023-04-03T05:00:05;102856.44;;;6.13
75431;BMP280;64127;51.488;5.462;2023-04-03T05:02:37;102869.84;;;6.17
75431;BMP280;64127;51.488;5.462;2023-04-03T05:05:09;102856.44;;;6.13
75431;BMP280;64127;51.488;5.462;2023-04-03T05:07:41;102864.03;;;6.20
75431;BMP280;64127;51.488;5.462;2023-04-03T05:10:13;102850.31;;;6.12
75431;BMP280;64127;51.488;5.462;2023-04-03T05:12:45;102859.16;;;6.14
75431;BMP280;64127;51.488;5.462;2023-04-03T05:15:17;102864.63;;;6.17
75431;BMP280;64127;51.488;5.462;2023-04-03T05:17:49;102864.34;;;6.14
75431;BMP280;64127;51.488;5.462;2023-04-03T05:20:22;102874.50;;;6.11
75431;BMP280;64127;51.488;5.462;2023-04-03T05:22:54;102869.44;;;6.13
75431;BMP280;64127;51.488;5.462;2023-04-03T05:25:27;102871.25;;;6.13
75431;BMP280;64127;51.488;5.462;2023-04-03T05:27:59;102866.84;;;6.13
75431;BMP280;64127;51.488;5.462;2023-04-03T05:30:31;102880.47;;;6.10
75431;BMP280;64127;51.488;5.462;2023-04-03T05:33:03;102881.09;;;6.07
75431;BMP280;64127;51.488;5.462;2023-04-03T05:35:37;102884.63;;;6.08
75431;BMP280;64127;51.488;5.462;2023-04-03T05:38:12;102887.69;;;6.04
75431;BMP280;64127;51.488;5.462;2023-04-03T05:40:44;102878.63;;;5.90
75431;BMP280;64127;51.488;5.462;2023-04-03T05:43:16;102853.75;;;5.75
75431;BMP280;64127;51.488;5.462;2023-04-03T05:45:48;102889.47;;;5.95
75431;BMP280;64127;51.488;5.462;2023-04-03T05:48:20;102895.16;;;5.91
75431;BMP280;64127;51.488;5.462;2023-04-03T05:50:52;102895.91;;;5.90
75431;BMP280;64127;51.488;5.462;2023-04-03T05:53:31;102895.16;;;5.91
75431;BMP280;64127;51.488;5.462;2023-04-03T05:56:05;102895.16;;;5.91
75431;BMP280;64127;51.488;5.462;2023-04-03T05:58:37;102892.06;;;5.95
75431;BMP280;64127;51.488;5.462;2023-04-03T06:01:09;102890.50;;;5.97
75431;BMP280;64127;51.488;5.462;2023-04-03T06:03:41;102894.59;;;6.03
75431;BMP280;64127;51.488;5.462;2023-04-03T06:06:14;102900.50;;;6.11
75431;BMP280;64127;51.488;5.462;2023-04-03T06:08:47;102893.53;;;6.20
75431;BMP280;64127;51.488;5.462;2023-04-03T06:11:19;102885.53;;;6.27
75431;BMP280;64127;51.488;5.462;2023-04-03T06:13:51;102881.94;;;6.35
75431;BMP280;64127;51.488;5.462;2023-04-03T06:16:22;102894.13;;;6.45
75431;BMP280;64127;51.488;5.462;2023-04-03T06:18:54;102899.00;;;6.50
75431;BMP280;64127;51.488;5.462;2023-04-03T06:21:28;102899.66;;;6.58
75431;BMP280;64127;51.488;5.462;2023-04-03T06:24:00;102905.84;;;6.69
75431;BMP280;64127;51.488;5.462;2023-04-03T06:26:33;102904.59;;;6.74
75431;BMP280;64127;51.488;5.462;2023-04-03T06:29:05;102904.91;;;6.87
75431;BMP280;64127;51.488;5.462;2023-04-03T06:31:37;102904.41;;;6.91
75431;BMP280;64127;51.488;5.462;2023-04-03T06:34:09;102910.69;;;7.03
75431;BMP280;64127;51.488;5.462;2023-04-03T06:36:43;102907.88;;;7.10
75431;BMP280;64127;51.488;5.462;2023-04-03T06:39:18;102917.03;;;7.15
75431;BMP280;64127;51.488;5.462;2023-04-03T06:41:52;102909.22;;;7.25
75431;BMP280;64127;51.488;5.462;2023-04-03T06:44:24;102917.09;;;7.35
75431;BMP280;64127;51.488;5.462;2023-04-03T06:46:56;102908.22;;;7.43
75431;BMP280;64127;51.488;5.462;2023-04-03T06:49:28;102916.34;;;7.46
75431;BMP280;64127;51.488;5.462;2023-04-03T06:52:00;102918.41;;;7.50
75431;BMP280;64127;51.488;5.462;2023-04-03T06:54:33;102909.72;;;7.60
75431;BMP280;64127;51.488;5.462;2023-04-03T06:57:07;102915.31;;;7.64
75431;BMP280;64127;51.488;5.462;2023-04-03T06:59:39;102921.63;;;7.77
75431;BMP280;64127;51.488;5.462;2023-04-03T07:02:12;102924.22;;;7.77
75431;BMP280;64127;51.488;5.462;2023-04-03T07:04:44;102923.44;;;7.88
75431;BMP280;64127;51.488;5.462;2023-04-03T07:07:16;102931.31;;;7.98
75431;BMP280;64127;51.488;5.462;2023-04-03T07:09:49;102914.31;;;8.13
75431;BMP280;64127;51.488;5.462;2023-04-03T07:12:21;102931.31;;;8.38
75431;BMP280;64127;51.488;5.462;2023-04-03T07:14:53;102926.34;;;8.41
75431;BMP280;64127;51.488;5.462;2023-04-03T07:17:25;102923.56;;;8.50
75431;BMP280;64127;51.488;5.462;2023-04-03T07:19:57;102927.75;;;8.58
75431;BMP280;64127;51.488;5.462;2023-04-03T07:22:30;102923.56;;;8.60
75431;BMP280;64127;51.488;5.462;2023-04-03T07:25:03;102935.97;;;8.73
75431;BMP280;64127;51.488;5.462;2023-04-03T07:27:36;102940.09;;;8.81
75431;BMP280;64127;51.488;5.462;2023-04-03T07:30:08;102933.56;;;8.86
75431;BMP280;64127;51.488;5.462;2023-04-03T07:32:41;102926.44;;;9.05
75431;BMP280;64127;51.488;5.462;2023-04-03T07:35:13;102934.13;;;9.13
75431;BMP280;64127;51.488;5.462;2023-04-03T07:37:45;102937.47;;;9.23
75431;BMP280;64127;51.488;5.462;2023-04-03T07:40:18;102936.81;;;9.25
75431;BMP280;64127;51.488;5.462;2023-04-03T07:42:51;102936.41;;;9.31
75431;BMP280;64127;51.488;5.462;2023-04-03T07:45:24;102933.28;;;9.46
75431;BMP280;64127;51.488;5.462;2023-04-03T07:47:57;102951.88;;;9.71
75431;BMP280;64127;51.488;5.462;2023-04-03T07:50:29;102942.78;;;9.78
75431;BMP280;64127;51.488;5.462;2023-04-03T07:53:03;102936.41;;;9.74
75431;BMP280;64127;51.488;5.462;2023-04-03T07:55:35;102934.16;;;9.79
75431;BMP280;64127;51.488;5.462;2023-04-03T07:58:17;102933.25;;;9.78
75431;BMP280;64127;51.488;5.462;2023-04-03T08:00:50;102951.28;;;9.97
75431;BMP280;64127;51.488;5.462;2023-04-03T08:03:22;102930.59;;;10.00
75431;BMP280;64127;51.488;5.462;2023-04-03T08:05:54;102944.72;;;10.02
75431;BMP280;64127;51.488;5.462;2023-04-03T08:08:26;102942.28;;;10.15
75431;BMP280;64127;51.488;5.462;2023-04-03T08:11:01;102935.38;;;10.27
75431;BMP280;64127;51.488;5.462;2023-04-03T08:13:34;102946.25;;;10.43
75431;BMP280;64127;51.488;5.462;2023-04-03T08:16:11;102951.63;;;10.56
75431;BMP280;64127;51.488;5.462;2023-04-03T08:18:43;102948.78;;;10.65
75431;BMP280;64127;51.488;5.462;2023-04-03T08:21:16;102947.06;;;10.54
75431;BMP280;64127;51.488;5.462;2023-04-03T08:23:50;102950.81;;;10.57
75431;BMP280;64127;51.488;5.462;2023-04-03T08:26:22;102944.44;;;10.65
75431;BMP280;64127;51.488;5.462;2023-04-03T08:28:54;102940.78;;;10.63
75431;BMP280;64127;51.488;5.462;2023-04-03T08:31:27;102949.69;;;10.65
75431;BMP280;64127;51.488;5.462;2023-04-03T08:33:59;102944.09;;;10.73
75431;BMP280;64127;51.488;5.462;2023-04-03T08:36:31;102932.34;;;10.79
75431;BMP280;64127;51.488;5.462;2023-04-03T08:39:03;102893.13;;;10.69
75431;BMP280;64127;51.488;5.462;2023-04-03T08:41:39;102942.84;;;11.14
75431;BMP280;64127;51.488;5.462;2023-04-03T08:47:17;102955.59;;;11.21
75431;BMP280;64127;51.488;5.462;2023-04-03T08:49:57;102949.91;;;11.15
75431;BMP280;64127;51.488;5.462;2023-04-03T08:52:38;102952.19;;;11.22
75431;BMP280;64127;51.488;5.462;2023-04-03T08:58:04;102951.72;;;11.39
75431;BMP280;64127;51.488;5.462;2023-04-03T09:00:55;102948.50;;;11.43
75431;BMP280;64127;51.488;5.462;2023-04-03T09:03:38;102940.91;;;11.59
75431;BMP280;64127;51.488;5.462;2023-04-03T09:06:32;102944.06;;;11.79
75431;BMP280;64127;51.488;5.462;2023-04-03T09:09:33;102944.28;;;11.82
75431;BMP280;64127;51.488;5.462;2023-04-03T09:18:22;102950.09;;;12.14
75431;BMP280;64127;51.488;5.462;2023-04-03T09:24:18;102935.03;;;12.49
75431;BMP280;64127;51.488;5.462;2023-04-03T09:27:03;102940.69;;;12.55
75431;BMP280;64127;51.488;5.462;2023-04-03T09:29:41;102940.09;;;12.46
75431;BMP280;64127;51.488;5.462;2023-04-03T09:32:32;102952.00;;;12.54
75431;BMP280;64127;51.488;5.462;2023-04-03T09:38:19;102945.75;;;12.52
75431;BMP280;64127;51.488;5.462;2023-04-03T09:41:16;102937.06;;;12.53
75431;BMP280;64127;51.488;5.462;2023-04-03T09:43:53;102911.34;;;12.36
75431;BMP280;64127;51.488;5.462;2023-04-03T09:46:29;102928.31;;;12.41
75431;BMP280;64127;51.488;5.462;2023-04-03T09:49:05;102909.91;;;12.41
75431;BMP280;64127;51.488;5.462;2023-04-03T09:51:40;102923.09;;;12.67
75431;BMP280;64127;51.488;5.462;2023-04-03T09:54:34;102915.00;;;12.64
75431;BMP280;64127;51.488;5.462;2023-04-03T09:57:13;102919.78;;;12.70
75431;BMP280;64127;51.488;5.462;2023-04-03T10:00:00;102911.75;;;12.68
75431;BMP280;64127;51.488;5.462;2023-04-03T10:02:40;102897.50;;;12.78
75431;BMP280;64127;51.488;5.462;2023-04-03T10:05:35;102907.34;;;12.81
75431;BMP280;64127;51.488;5.462;2023-04-03T10:10:48;102898.00;;;12.73
75431;BMP280;64127;51.488;5.462;2023-04-03T10:13:49;102895.69;;;12.77
75431;BMP280;64127;51.488;5.462;2023-04-03T10:19:57;102897.41;;;12.90
75431;BMP280;64127;51.488;5.462;2023-04-03T10:22:37;102899.50;;;12.95
75431;BMP280;64127;51.488;5.462;2023-04-03T10:28:10;102871.47;;;12.83
75431;BMP280;64127;51.488;5.462;2023-04-03T10:40:02;102873.41;;;13.39
75431;BMP280;64127;51.488;5.462;2023-04-03T10:43:07;102863.47;;;13.48
75431;BMP280;64127;51.488;5.462;2023-04-03T10:52:12;102853.06;;;13.64
75431;BMP280;64127;51.488;5.462;2023-04-03T10:58:29;102842.28;;;13.75
75431;BMP280;64127;51.488;5.462;2023-04-03T11:01:16;102844.56;;;13.83
75431;BMP280;64127;51.488;5.462;2023-04-03T11:03:54;102848.59;;;14.06
75431;BMP280;64127;51.488;5.462;2023-04-03T11:06:40;102833.69;;;14.06
75431;BMP280;64127;51.488;5.462;2023-04-03T11:09:34;102830.97;;;14.34
75431;BMP280;64127;51.488;5.462;2023-04-03T11:12:43;102836.31;;;14.21
75431;BMP280;64127;51.488;5.462;2023-04-03T11:15:20;102835.81;;;14.41
75431;BMP280;64127;51.488;5.462;2023-04-03T11:18:22;102826.94;;;14.26
75431;BMP280;64127;51.488;5.462;2023-04-03T11:21:34;102812.19;;;14.15
75431;BMP280;64127;51.488;5.462;2023-04-03T11:24:21;102829.13;;;14.33
75431;BMP280;64127;51.488;5.462;2023-04-03T11:26:56;102825.41;;;14.44
75431;BMP280;64127;51.488;5.462;2023-04-03T11:29:35;102820.50;;;14.50
75431;BMP280;64127;51.488;5.462;2023-04-03T11:32:42;102811.94;;;14.40
75431;BMP280;64127;51.488;5.462;2023-04-03T11:35:19;102827.03;;;14.42
75431;BMP280;64127;51.488;5.462;2023-04-03T11:37:53;102814.56;;;14.25
75431;BMP280;64127;51.488;5.462;2023-04-03T11:40:32;102800.66;;;14.13
75431;BMP280;64127;51.488;5.462;2023-04-03T11:43:24;102800.09;;;14.18
75431;BMP280;64127;51.488;5.462;2023-04-03T11:46:02;102761.84;;;13.96
75431;BMP280;64127;51.488;5.462;2023-04-03T11:53:48;102795.75;;;14.19
75431;BMP280;64127;51.488;5.462;2023-04-03T12:01:57;102802.28;;;14.11
75431;BMP280;64127;51.488;5.462;2023-04-03T12:04:30;102783.81;;;14.11
75431;BMP280;64127;51.488;5.462;2023-04-03T12:07:18;102787.28;;;14.10
75431;BMP280;64127;51.488;5.462;2023-04-03T12:09:58;102786.66;;;14.14
75431;BMP280;64127;51.488;5.462;2023-04-03T12:12:35;102784.28;;;14.18
75431;BMP280;64127;51.488;5.462;2023-04-03T12:15:38;102776.09;;;14.14
75431;BMP280;64127;51.488;5.462;2023-04-03T12:27:14;102768.06;;;14.42
75431;BMP280;64127;51.488;5.462;2023-04-03T12:30:22;102764.38;;;14.38
75431;BMP280;64127;51.488;5.462;2023-04-03T12:36:37;102771.06;;;14.33
75431;BMP280;64127;51.488;5.462;2023-04-03T12:45:22;102748.72;;;14.41
75431;BMP280;64127;51.488;5.462;2023-04-03T12:47:56;102754.50;;;14.50
75431;BMP280;64127;51.488;5.462;2023-04-03T12:50:31;102746.94;;;14.56
75431;BMP280;64127;51.488;5.462;2023-04-03T12:53:25;102738.34;;;14.60
75431;BMP280;64127;51.488;5.462;2023-04-03T12:56:29;102735.44;;;14.56
75431;BMP280;64127;51.488;5.462;2023-04-03T12:59:25;102735.69;;;14.44
75431;BMP280;64127;51.488;5.462;2023-04-03T13:02:00;102741.94;;;14.46
75431;BMP280;64127;51.488;5.462;2023-04-03T13:04:33;102728.28;;;14.53
75431;BMP280;64127;51.488;5.462;2023-04-03T13:07:05;102730.28;;;14.57
75431;BMP280;64127;51.488;5.462;2023-04-03T13:09:37;102720.78;;;14.61
75431;BMP280;64127;51.488;5.462;2023-04-03T13:12:15;102724.50;;;14.64
75431;BMP280;64127;51.488;5.462;2023-04-03T13:14:58;102699.50;;;14.58
75431;BMP280;64127;51.488;5.462;2023-04-03T13:17:32;102705.88;;;14.61
75431;BMP280;64127;51.488;5.462;2023-04-03T13:20:29;102728.53;;;14.58
75431;BMP280;64127;51.488;5.462;2023-04-03T13:23:07;102714.59;;;14.60
75431;BMP280;64127;51.488;5.462;2023-04-03T13:25:43;102705.22;;;14.65
75431;BMP280;64127;51.488;5.462;2023-04-03T13:28:23;102676.56;;;14.57
75431;BMP280;64127;51.488;5.462;2023-04-03T13:36:46;102697.47;;;14.85
75431;BMP280;64127;51.488;5.462;2023-04-03T13:39:29;102711.00;;;14.91
75431;BMP280;64127;51.488;5.462;2023-04-03T13:42:26;102689.38;;;14.82
75431;BMP280;64127;51.488;5.462;2023-04-03T13:45:24;102704.31;;;14.97
75431;BMP280;64127;51.488;5.462;2023-04-03T13:48:19;102698.81;;;14.93
75431;BMP280;64127;51.488;5.462;2023-04-03T13:51:04;102662.13;;;14.66
75431;BMP280;64127;51.488;5.462;2023-04-03T13:53:46;102701.34;;;14.91
75431;BMP280;64127;51.488;5.462;2023-04-03T13:56:35;102690.59;;;15.04
75431;BMP280;64127;51.488;5.462;2023-04-03T14:01:54;102693.50;;;15.09
75431;BMP280;64127;51.488;5.462;2023-04-03T14:04:45;102683.28;;;14.99
75431;BMP280;64127;51.488;5.462;2023-04-03T14:07:17;102672.88;;;15.02
75431;BMP280;64127;51.488;5.462;2023-04-03T14:09:52;102664.34;;;15.07
75431;BMP280;64127;51.488;5.462;2023-04-03T14:12:35;102667.59;;;15.02
75431;BMP280;64127;51.488;5.462;2023-04-03T14:15:23;102679.63;;;14.97
75431;BMP280;64127;51.488;5.462;2023-04-03T14:17:57;102676.34;;;15.01
75431;BMP280;64127;51.488;5.462;2023-04-03T14:20:32;102664.78;;;14.99
75431;BMP280;64127;51.488;5.462;2023-04-03T14:23:04;102680.91;;;15.03
75431;BMP280;64127;51.488;5.462;2023-04-03T14:25:37;102671.03;;;15.01
75431;BMP280;64127;51.488;5.462;2023-04-03T14:28:19;102667.91;;;15.08
75431;BMP280;64127;51.488;5.462;2023-04-03T14:30:52;102688.28;;;15.10
75431;BMP280;64127;51.488;5.462;2023-04-03T14:33:25;102683.34;;;15.00
75431;BMP280;64127;51.488;5.462;2023-04-03T14:36:00;102670.47;;;14.90
75431;BMP280;64127;51.488;5.462;2023-04-03T14:38:33;102677.69;;;14.93
75431;BMP280;64127;51.488;5.462;2023-04-03T14:41:07;102672.72;;;14.99
75431;BMP280;64127;51.488;5.462;2023-04-03T14:43:48;102682.22;;;14.95
75431;BMP280;64127;51.488;5.462;2023-04-03T14:46:28;102670.72;;;14.95
75431;BMP280;64127;51.488;5.462;2023-04-03T14:49:25;102672.63;;;14.97
75431;BMP280;64127;51.488;5.462;2023-04-03T14:51:58;102665.75;;;15.01
75431;BMP280;64127;51.488;5.462;2023-04-03T14:54:31;102678.06;;;15.16
75431;BMP280;64127;51.488;5.462;2023-04-03T14:57:13;102670.03;;;15.15
75431;BMP280;64127;51.488;5.462;2023-04-03T14:59:46;102625.00;;;14.96
75431;BMP280;64127;51.488;5.462;2023-04-03T15:05:08;102650.31;;;15.08
75431;BMP280;64127;51.488;5.462;2023-04-03T15:07:52;102653.06;;;15.10
75431;BMP280;64127;51.488;5.462;2023-04-03T15:10:29;102654.19;;;15.15
75431;BMP280;64127;51.488;5.462;2023-04-03T15:13:01;102657.50;;;15.11
75431;BMP280;64127;51.488;5.462;2023-04-03T15:15:35;102624.59;;;14.88
75431;BMP280;64127;51.488;5.462;2023-04-03T15:18:16;102649.84;;;14.99
75431;BMP280;64127;51.488;5.462;2023-04-03T15:20:49;102653.06;;;14.94
75431;BMP280;64127;51.488;5.462;2023-04-03T15:23:21;102644.31;;;14.95
75431;BMP280;64127;51.488;5.462;2023-04-03T15:25:58;102644.94;;;15.07
75431;BMP280;64127;51.488;5.462;2023-04-03T15:28:39;102627.81;;;14.99
75431;BMP280;64127;51.488;5.462;2023-04-03T15:31:12;102642.25;;;15.05
75431;BMP280;64127;51.488;5.462;2023-04-03T15:33:44;102648.44;;;15.06
75431;BMP280;64127;51.488;5.462;2023-04-03T15:36:16;102635.88;;;15.02
75431;BMP280;64127;51.488;5.462;2023-04-03T15:38:53;102626.09;;;14.99
75431;BMP280;64127;51.488;5.462;2023-04-03T15:41:25;102649.91;;;15.17
75431;BMP280;64127;51.488;5.462;2023-04-03T15:43:57;102607.97;;;15.07
75431;BMP280;64127;51.488;5.462;2023-04-03T15:46:29;102636.00;;;15.37
75431;BMP280;64127;51.488;5.462;2023-04-03T15:49:01;102645.50;;;15.34
75431;BMP280;64127;51.488;5.462;2023-04-03T15:51:33;102643.03;;;15.20
75431;BMP280;64127;51.488;5.462;2023-04-03T15:54:08;102639.25;;;15.15
75431;BMP280;64127;51.488;5.462;2023-04-03T15:56:41;102652.06;;;15.08
75431;BMP280;64127;51.488;5.462;2023-04-03T15:59:13;102653.56;;;15.03
75431;BMP280;64127;51.488;5.462;2023-04-03T16:01:45;102644.31;;;14.95
75431;BMP280;64127;51.488;5.462;2023-04-03T16:04:18;102656.13;;;14.85
75431;BMP280;64127;51.488;5.462;2023-04-03T16:06:52;102660.19;;;14.79
75431;BMP280;64127;51.488;5.462;2023-04-03T16:09:24;102651.94;;;14.73
75431;BMP280;64127;51.488;5.462;2023-04-03T16:11:56;102649.19;;;14.71
75431;BMP280;64127;51.488;5.462;2023-04-03T16:14:28;102643.50;;;14.63
75431;BMP280;64127;51.488;5.462;2023-04-03T16:17:02;102650.75;;;14.67
75431;BMP280;64127;51.488;5.462;2023-04-03T16:19:34;102652.91;;;14.75
75431;BMP280;64127;51.488;5.462;2023-04-03T16:22:06;102650.09;;;14.71
75431;BMP280;64127;51.488;5.462;2023-04-03T16:24:38;102656.53;;;14.60